sensor_id;sensor_type;location;lat;lon;timestamp;pressure;altitude;pressure_sealevel;temperature;humidity
18504;BME280;9381;54.244;10.074;2023-01-23T00:03:28;103201.69;;;4.48;100.00
18504;BME280;9381;54.244;10.074;2023-01-23T00:08:28;103200.88;;;4.58;100.00
18504;BME280;9381;54.244;10.074;2023-01-23T00:13:29;103202.66;;;4.58;100.00
18504;BME280;9381;54.244;10.074;2023-01-23T00:18:29;103205.72;;;4.53;100.00
18504;BME280;9381;54.244;10.074;2023-01-23T00:23:30;103196.47;;;4.57;100.00
18504;BME280;9381;54.244;10.074;2023-01-23T00:28:30;103183.63;;;4.39;100.00
18504;BME280;9381;54.244;10.074;2023-01-23T00:33:31;103181.50;;;4.20;100.00
18504;BME280;9381;54.244;10.074;2023-01-23T00:38:32;103176.88;;;4.22;100.00
18504;BME280;9381;54.244;10.074;2023-01-23T00:43:32;103187.00;;;4.30;100.00
18504;BME280;9381;54.244;10.074;2023-01-23T00:48:32;103184.78;;;4.24;100.00
18504;BME280;9381;54.244;10.074;2023-01-23T00:53:33;103181.50;;;4.20;100.00
18504;BME280;9381;54.244;10.074;2023-01-23T00:58:34;103197.72;;;4.30;100.00
18504;BME280;9381;54.244;10.074;2023-01-23T01:03:34;103199.97;;;4.47;100.00
18504;BME280;9381;54.244;10.074;2023-01-23T01:08:35;103197.03;;;4.39;100.00
18504;BME280;9381;54.244;10.074;2023-01-23T01:13:36;103201.75;;;4.35;100.00
18504;BME280;9381;54.244;10.074;2023-01-23T01:18:36;103194.00;;;4.43;100.00
18504;BME280;9381;54.244;10.074;2023-01-23T01:23:38;103195.56;;;4.35;100.00
18504;BME280;9381;54.244;10.074;2023-01-23T01:28:39;103201.69;;;4.48;100.00
18504;BME280;9381;54.244;10.074;2023-01-23T01:33:42;103194.59;;;4.36;100.00
18504;BME280;9381;54.244;10.074;2023-01-23T01:38:42;103198.66;;;4.18;100.00
18504;BME280;9381;54.244;10.074;2023-01-23T01:43:44;103194.22;;;4.06;100.00
18504;BME280;9381;54.244;10.074;2023-01-23T01:49:04;103200.38;;;4.19;100.00
18504;BME280;9381;54.244;10.074;2023-01-23T01:54:13;103205.75;;;4.30;100.00
18504;BME280;9381;54.244;10.074;2023-01-23T01:59:17;103204.41;;;4.24;100.00
18504;BME280;9381;54.244;10.074;2023-01-23T02:04:19;103209.59;;;4.15;100.00
18504;BME280;9381;54.244;10.074;2023-01-23T02:09:24;103208.38;;;4.08;100.00
18504;BME280;9381;54.244;10.074;2023-01-23T02:14:25;103205.91;;;4.05;100.00
18504;BME280;9381;54.244;10.074;2023-01-23T02:30:10;103198.09;;;4.02;100.00
18504;BME280;9381;54.244;10.074;2023-01-23T02:35:15;103200.03;;;4.00;100.00
18504;BME280;9381;54.244;10.074;2023-01-23T02:40:19;103210.06;;;4.09;100.00
18504;BME280;9381;54.244;10.074;2023-01-23T02:45:28;103210.47;;;4.15;100.00
18504;BME280;9381;54.244;10.074;2023-01-23T02:50:30;103206.19;;;4.13;100.00
18504;BME280;9381;54.244;10.074;2023-01-23T02:55:31;103210.22;;;4.18;100.00
18504;BME280;9381;54.244;10.074;2023-01-23T03:00:36;103220.31;;;4.15;100.00
18504;BME280;9381;54.244;10.074;2023-01-23T03:05:37;103226.19;;;4.20;100.00
18504;BME280;9381;54.244;10.074;2023-01-23T03:10:38;103236.94;;;4.31;100.00
18504;BME280;9381;54.244;10.074;2023-01-23T03:15:38;103242.34;;;4.42;100.00
18504;BME280;9381;54.244;10.074;2023-01-23T03:20:41;103242.34;;;4.18;100.00
18504;BME280;9381;54.244;10.074;2023-01-23T03:25:45;103236.72;;;4.34;100.00
18504;BME280;9381;54.244;10.074;2023-01-23T03:30:45;103235.22;;;4.30;100.00
18504;BME280;9381;54.244;10.074;2023-01-23T03:35:45;103238.59;;;4.21;100.00
18504;BME280;9381;54.244;10.074;2023-01-23T03:40:49;103239.34;;;4.23;100.00
18504;BME280;9381;54.244;10.074;2023-01-23T03:46:08;103250.34;;;4.31;100.00
18504;BME280;9381;54.244;10.074;2023-01-23T03:51:08;103248.31;;;4.11;100.00
18504;BME280;9381;54.244;10.074;2023-01-23T03:56:09;103245.94;;;4.30;100.00
18504;BME280;9381;54.244;10.074;2023-01-23T04:01:09;103252.25;;;4.18;100.00
18504;BME280;9381;54.244;10.074;2023-01-23T04:06:09;103247.50;;;4.56;100.00
18504;BME280;9381;54.244;10.074;2023-01-23T04:11:11;103250.78;;;4.48;100.00
18504;BME280;9381;54.244;10.074;2023-01-23T04:16:12;103250.88;;;4.47;100.00
18504;BME280;9381;54.244;10.074;2023-01-23T04:21:12;103248.72;;;4.28;100.00
18504;BME280;9381;54.244;10.074;2023-01-23T04:26:13;103249.00;;;4.36;100.00
18504;BME280;9381;54.244;10.074;2023-01-23T04:31:13;103250.72;;;4.37;100.00
18504;BME280;9381;54.244;10.074;2023-01-23T04:36:13;103257.69;;;4.40;100.00
18504;BME280;9381;54.244;10.074;2023-01-23T04:41:19;103256.25;;;4.47;100.00
18504;BME280;9381;54.244;10.074;2023-01-23T04:46:20;103255.25;;;4.37;100.00
18504;BME280;9381;54.244;10.074;2023-01-23T04:51:20;103258.25;;;4.32;100.00
18504;BME280;9381;54.244;10.074;2023-01-23T04:56:21;103260.88;;;4.45;100.00
18504;BME280;9381;54.244;10.074;2023-01-23T05:01:21;103266.88;;;4.48;100.00
18504;BME280;9381;54.244;10.074;2023-01-23T05:06:22;103268.94;;;4.56;100.00
18504;BME280;9381;54.244;10.074;2023-01-23T05:11:22;103278.50;;;4.36;100.00
18504;BME280;9381;54.244;10.074;2023-01-23T05:16:23;103290.34;;;4.45;100.00
18504;BME280;9381;54.244;10.074;2023-01-23T05:21:23;103283.53;;;4.52;100.00
18504;BME280;9381;54.244;10.074;2023-01-23T05:26:24;103286.72;;;4.46;100.00
18504;BME280;9381;54.244;10.074;2023-01-23T05:31:24;103287.19;;;4.51;100.00
18504;BME280;9381;54.244;10.074;2023-01-23T05:36:24;103288.22;;;4.37;100.00
18504;BME280;9381;54.244;10.074;2023-01-23T05:41:25;103283.97;;;4.35;100.00
18504;BME280;9381;54.244;10.074;2023-01-23T05:46:25;103298.84;;;4.39;100.00
18504;BME280;9381;54.244;10.074;2023-01-23T05:51:25;103299.28;;;4.33;100.00
18504;BME280;9381;54.244;10.074;2023-01-23T05:56:31;103298.81;;;3.92;100.00
18504;BME280;9381;54.244;10.074;2023-01-23T06:01:31;103298.41;;;3.98;100.00
18504;BME280;9381;54.244;10.074;2023-01-23T06:06:32;103310.63;;;3.77;100.00
18504;BME280;9381;54.244;10.074;2023-01-23T06:11:32;103309.81;;;3.64;100.00
18504;BME280;9381;54.244;10.074;2023-01-23T06:16:32;103315.16;;;3.64;100.00
18504;BME280;9381;54.244;10.074;2023-01-23T06:21:32;103320.09;;;3.70;100.00
18504;BME280;9381;54.244;10.074;2023-01-23T06:26:33;103306.81;;;3.68;100.00
18504;BME280;9381;54.244;10.074;2023-01-23T06:31:33;103302.75;;;3.63;100.00
18504;BME280;9381;54.244;10.074;2023-01-23T06:36:33;103309.09;;;3.62;100.00
18504;BME280;9381;54.244;10.074;2023-01-23T06:41:35;103309.81;;;3.64;100.00
18504;BME280;9381;54.244;10.074;2023-01-23T06:46:35;103313.56;;;3.61;100.00
18504;BME280;9381;54.244;10.074;2023-01-23T06:51:36;103321.97;;;3.93;100.00
18504;BME280;9381;54.244;10.074;2023-01-23T06:56:36;103325.41;;;3.82;100.00
18504;BME280;9381;54.244;10.074;2023-01-23T07:01:36;103330.56;;;3.73;100.00
18504;BME280;9381;54.244;10.074;2023-01-23T07:06:37;103336.25;;;3.68;100.00
18504;BME280;9381;54.244;10.074;2023-01-23T07:11:38;103327.16;;;3.71;100.00
18504;BME280;9381;54.244;10.074;2023-01-23T07:16:38;103350.06;;;3.75;100.00
18504;BME280;9381;54.244;10.074;2023-01-23T07:21:38;103350.88;;;3.88;100.00
18504;BME280;9381;54.244;10.074;2023-01-23T07:26:39;103360.19;;;3.82;100.00
18504;BME280;9381;54.244;10.074;2023-01-23T07:31:39;103371.56;;;3.86;100.00
18504;BME280;9381;54.244;10.074;2023-01-23T07:36:39;103374.97;;;3.88;100.00
18504;BME280;9381;54.244;10.074;2023-01-23T07:41:39;103383.63;;;3.91;100.00
18504;BME280;9381;54.244;10.074;2023-01-23T07:46:40;103393.28;;;3.94;100.00
18504;BME280;9381;54.244;10.074;2023-01-23T07:51:40;103399.06;;;4.00;100.00
18504;BME280;9381;54.244;10.074;2023-01-23T07:56:40;103402.81;;;3.98;100.00
18504;BME280;9381;54.244;10.074;2023-01-23T08:01:41;103409.25;;;3.95;100.00
18504;BME280;9381;54.244;10.074;2023-01-23T08:06:41;103417.69;;;4.02;100.00
18504;BME280;9381;54.244;10.074;2023-01-23T08:11:42;103421.75;;;4.07;100.00
18504;BME280;9381;54.244;10.074;2023-01-23T08:16:42;103425.81;;;4.13;100.00
18504;BME280;9381;54.244;10.074;2023-01-23T08:21:44;103427.84;;;4.09;100.00
18504;BME280;9381;54.244;10.074;2023-01-23T08:26:46;103421.09;;;4.16;100.00
18504;BME280;9381;54.244;10.074;2023-01-23T08:31:47;103439.53;;;4.21;100.00
18504;BME280;9381;54.244;10.074;2023-01-23T08:36:47;103441.63;;;4.28;100.00
18504;BME280;9381;54.244;10.074;2023-01-23T08:41:47;103440.25;;;4.23;100.00
18504;BME280;9381;54.244;10.074;2023-01-23T08:46:48;103430.59;;;4.33;100.00
18504;BME280;9381;54.244;10.074;2023-01-23T08:51:48;103428.13;;;4.30;100.00
18504;BME280;9381;54.244;10.074;2023-01-23T08:56:48;103423.81;;;4.40;100.00
18504;BME280;9381;54.244;10.074;2023-01-23T09:01:49;103436.72;;;4.35;100.00
18504;BME280;9381;54.244;10.074;2023-01-23T09:06:49;103441.41;;;4.44;100.00
18504;BME280;9381;54.244;10.074;2023-01-23T09:11:49;103443.13;;;4.45;100.00
18504;BME280;9381;54.244;10.074;2023-01-23T09:16:50;103441.41;;;4.44;100.00
18504;BME280;9381;54.244;10.074;2023-01-23T09:21:52;103441.81;;;4.50;100.00
18504;BME280;9381;54.244;10.074;2023-01-23T09:26:53;103439.00;;;4.52;100.00
18504;BME280;9381;54.244;10.074;2023-01-23T09:31:54;103440.25;;;4.59;100.00
18504;BME280;9381;54.244;10.074;2023-01-23T09:36:54;103432.34;;;4.57;100.00
18504;BME280;9381;54.244;10.074;2023-01-23T09:41:55;103436.59;;;4.60;100.00
18504;BME280;9381;54.244;10.074;2023-01-23T09:46:58;103431.25;;;4.60;100.00
18504;BME280;9381;54.244;10.074;2023-01-23T09:57:12;103433.03;;;4.72;100.00
18504;BME280;9381;54.244;10.074;2023-01-23T10:02:18;103426.47;;;4.76;100.00
18504;BME280;9381;54.244;10.074;2023-01-23T10:13:06;103432.91;;;4.73;100.00
18504;BME280;9381;54.244;10.074;2023-01-23T10:18:25;103421.41;;;4.84;100.00
18504;BME280;9381;54.244;10.074;2023-01-23T10:23:40;103427.53;;;4.97;100.00
18504;BME280;9381;54.244;10.074;2023-01-23T10:28:45;103431.81;;;4.99;100.00
18504;BME280;9381;54.244;10.074;2023-01-23T10:33:55;103434.69;;;5.09;100.00
18504;BME280;9381;54.244;10.074;2023-01-23T10:39:04;103435.53;;;5.09;100.00
18504;BME280;9381;54.244;10.074;2023-01-23T10:44:14;103429.31;;;5.09;100.00
18504;BME280;9381;54.244;10.074;2023-01-23T10:49:44;103423.00;;;5.21;100.00
18504;BME280;9381;54.244;10.074;2023-01-23T10:54:45;103423.63;;;5.24;100.00
18504;BME280;9381;54.244;10.074;2023-01-23T10:59:56;103429.13;;;5.34;100.00
18504;BME280;9381;54.244;10.074;2023-01-23T11:05:00;103436.13;;;5.47;100.00
18504;BME280;9381;54.244;10.074;2023-01-23T11:10:15;103425.28;;;5.59;100.00
18504;BME280;9381;54.244;10.074;2023-01-23T11:15:37;103430.28;;;5.53;100.00
18504;BME280;9381;54.244;10.074;2023-01-23T11:20:40;103439.22;;;5.64;100.00
18504;BME280;9381;54.244;10.074;2023-01-23T11:25:52;103440.69;;;5.68;100.00
18504;BME280;9381;54.244;10.074;2023-01-23T11:30:58;103443.88;;;5.73;100.00
18504;BME280;9381;54.244;10.074;2023-01-23T11:41:13;103446.88;;;5.81;100.00
18504;BME280;9381;54.244;10.074;2023-01-23T11:46:44;103442.69;;;5.88;100.00
18504;BME280;9381;54.244;10.074;2023-01-23T11:52:08;103431.72;;;6.02;100.00
18504;BME280;9381;54.244;10.074;2023-01-23T12:13:33;103434.41;;;5.80;100.00
18504;BME280;9381;54.244;10.074;2023-01-23T12:34:32;103440.00;;;5.88;100.00
18504;BME280;9381;54.244;10.074;2023-01-23T12:39:57;103446.47;;;5.75;100.00
18504;BME280;9381;54.244;10.074;2023-01-23T12:45:20;103459.53;;;5.79;100.00
18504;BME280;9381;54.244;10.074;2023-01-23T12:50:32;103468.97;;;5.85;100.00
18504;BME280;9381;54.244;10.074;2023-01-23T12:55:54;103463.47;;;5.86;100.00
18504;BME280;9381;54.244;10.074;2023-01-23T13:01:05;103463.97;;;5.80;100.00
18504;BME280;9381;54.244;10.074;2023-01-23T13:16:45;103462.72;;;5.84;100.00
18504;BME280;9381;54.244;10.074;2023-01-23T13:22:10;103469.81;;;5.85;100.00
18504;BME280;9381;54.244;10.074;2023-01-23T13:32:46;103463.47;;;5.86;100.00
18504;BME280;9381;54.244;10.074;2023-01-23T13:37:47;103449.31;;;5.84;100.00
18504;BME280;9381;54.244;10.074;2023-01-23T13:42:50;103454.66;;;5.84;100.00
18504;BME280;9381;54.244;10.074;2023-01-23T13:53:50;103446.88;;;5.81;100.00
18504;BME280;9381;54.244;10.074;2023-01-23T13:59:15;103457.78;;;5.78;100.00
18504;BME280;9381;54.244;10.074;2023-01-23T14:04:21;103460.72;;;5.64;100.00
18504;BME280;9381;54.244;10.074;2023-01-23T14:09:41;103460.47;;;5.67;100.00
18504;BME280;9381;54.244;10.074;2023-01-23T14:14:41;103453.38;;;5.66;100.00
18504;BME280;9381;54.244;10.074;2023-01-23T14:20:05;103447.91;;;5.68;100.00
18504;BME280;9381;54.244;10.074;2023-01-23T14:25:13;103429.13;;;5.68;100.00
18504;BME280;9381;54.244;10.074;2023-01-23T14:30:16;103432.25;;;5.62;100.00
18504;BME280;9381;54.244;10.074;2023-01-23T14:35:22;103423.38;;;5.62;100.00
18504;BME280;9381;54.244;10.074;2023-01-23T14:40:23;103426.00;;;5.51;100.00
18504;BME280;9381;54.244;10.074;2023-01-23T14:45:27;103427.34;;;5.45;100.00
18504;BME280;9381;54.244;10.074;2023-01-23T14:50:28;103426.50;;;5.45;100.00
18504;BME280;9381;54.244;10.074;2023-01-23T14:55:30;103426.97;;;5.39;100.00
18504;BME280;9381;54.244;10.074;2023-01-23T15:00:34;103424.53;;;5.36;100.00
18504;BME280;9381;54.244;10.074;2023-01-23T15:05:35;103423.75;;;5.34;100.00
18504;BME280;9381;54.244;10.074;2023-01-23T15:15:52;103429.63;;;5.28;100.00
18504;BME280;9381;54.244;10.074;2023-01-23T15:20:59;103428.91;;;5.37;100.00
18504;BME280;9381;54.244;10.074;2023-01-23T15:31:29;103445.09;;;5.24;100.00
18504;BME280;9381;54.244;10.074;2023-01-23T15:36:30;103446.72;;;5.27;100.00
18504;BME280;9381;54.244;10.074;2023-01-23T15:41:38;103457.31;;;5.28;100.00
18504;BME280;9381;54.244;10.074;2023-01-23T15:46:39;103456.22;;;5.31;100.00
18504;BME280;9381;54.244;10.074;2023-01-23T15:51:39;103467.06;;;5.29;100.00
18504;BME280;9381;54.244;10.074;2023-01-23T15:56:41;103468.66;;;5.32;100.00
18504;BME280;9381;54.244;10.074;2023-01-23T16:01:42;103466.13;;;5.30;100.00
18504;BME280;9381;54.244;10.074;2023-01-23T16:06:43;103471.34;;;5.32;100.00
18504;BME280;9381;54.244;10.074;2023-01-23T16:11:44;103473.28;;;5.30;100.00
18504;BME280;9381;54.244;10.074;2023-01-23T16:16:45;103471.25;;;5.33;100.00
18504;BME280;9381;54.244;10.074;2023-01-23T16:21:45;103474.03;;;5.32;100.00
18504;BME280;9381;54.244;10.074;2023-01-23T16:26:50;103479.28;;;5.33;100.00
18504;BME280;9381;54.244;10.074;2023-01-23T16:31:52;103473.81;;;5.35;100.00
18504;BME280;9381;54.244;10.074;2023-01-23T16:36:55;103463.81;;;5.37;100.00
18504;BME280;9381;54.244;10.074;2023-01-23T16:41:56;103471.00;;;5.36;100.00
18504;BME280;9381;54.244;10.074;2023-01-23T16:46:57;103470.38;;;5.33;100.00
18504;BME280;9381;54.244;10.074;2023-01-23T16:51:59;103477.44;;;5.34;100.00
18504;BME280;9381;54.244;10.074;2023-01-23T16:57:00;103485.28;;;5.37;100.00
18504;BME280;9381;54.244;10.074;2023-01-23T17:07:15;103487.00;;;5.38;100.00
18504;BME280;9381;54.244;10.074;2023-01-23T17:12:19;103486.47;;;5.33;100.00
18504;BME280;9381;54.244;10.074;2023-01-23T17:17:31;103498.91;;;5.34;100.00
18504;BME280;9381;54.244;10.074;2023-01-23T17:22:39;103494.53;;;5.33;100.00
18504;BME280;9381;54.244;10.074;2023-01-23T17:27:40;103496.47;;;5.31;100.00
18504;BME280;9381;54.244;10.074;2023-01-23T17:32:41;103504.53;;;5.31;100.00
18504;BME280;9381;54.244;10.074;2023-01-23T17:37:42;103506.47;;;5.29;100.00
18504;BME280;9381;54.244;10.074;2023-01-23T17:42:42;103510.97;;;5.28;100.00
18504;BME280;9381;54.244;10.074;2023-01-23T17:47:48;103514.53;;;5.29;100.00
18504;BME280;9381;54.244;10.074;2023-01-23T17:52:50;103521.72;;;5.28;100.00
18504;BME280;9381;54.244;10.074;2023-01-23T17:57:50;103518.53;;;5.23;100.00
18504;BME280;9381;54.244;10.074;2023-01-23T18:02:55;103534.28;;;5.28;100.00
18504;BME280;9381;54.244;10.074;2023-01-23T18:07:56;103527.94;;;5.29;100.00
18504;BME280;9381;54.244;10.074;2023-01-23T18:18:20;103529.91;;;5.27;100.00
18504;BME280;9381;54.244;10.074;2023-01-23T18:23:24;103538.28;;;5.22;100.00
18504;BME280;9381;54.244;10.074;2023-01-23T18:28:31;103530.09;;;5.24;100.00
18504;BME280;9381;54.244;10.074;2023-01-23T18:33:48;103526.94;;;5.19;100.00
18504;BME280;9381;54.244;10.074;2023-01-23T18:39:06;103533.47;;;5.15;100.00
18504;BME280;9381;54.244;10.074;2023-01-23T18:44:30;103533.75;;;5.23;100.00
18504;BME280;9381;54.244;10.074;2023-01-23T18:49:31;103523.38;;;5.18;100.00
18504;BME280;9381;54.244;10.074;2023-01-23T18:54:41;103529.31;;;5.11;100.00
18504;BME280;9381;54.244;10.074;2023-01-23T19:04:56;103522.81;;;5.02;100.00
18504;BME280;9381;54.244;10.074;2023-01-23T19:10:00;103531.06;;;4.99;100.00
18504;BME280;9381;54.244;10.074;2023-01-23T19:20:38;103520.25;;;5.01;100.00
18504;BME280;9381;54.244;10.074;2023-01-23T19:25:40;103515.63;;;5.03;100.00
18504;BME280;9381;54.244;10.074;2023-01-23T19:30:40;103514.78;;;5.02;100.00
18504;BME280;9381;54.244;10.074;2023-01-23T19:35:43;103518.41;;;5.01;100.00
18504;BME280;9381;54.244;10.074;2023-01-23T19:40:44;103522.69;;;5.04;100.00
18504;BME280;9381;54.244;10.074;2023-01-23T19:45:45;103543.94;;;5.07;100.00
18504;BME280;9381;54.244;10.074;2023-01-23T19:50:46;103522.81;;;5.02;100.00
18504;BME280;9381;54.244;10.074;2023-01-23T19:55:46;103518.19;;;5.04;100.00
18504;BME280;9381;54.244;10.074;2023-01-23T20:00:47;103526.28;;;4.92;100.00
18504;BME280;9381;54.244;10.074;2023-01-23T20:05:47;103531.75;;;4.90;100.00
18504;BME280;9381;54.244;10.074;2023-01-23T20:10:47;103528.66;;;4.84;100.00
18504;BME280;9381;54.244;10.074;2023-01-23T20:15:48;103524.28;;;4.83;100.00
18504;BME280;9381;54.244;10.074;2023-01-23T20:20:49;103544.41;;;4.88;100.00
18504;BME280;9381;54.244;10.074;2023-01-23T20:26:00;103543.56;;;4.88;100.00
18504;BME280;9381;54.244;10.074;2023-01-23T20:31:08;103550.84;;;4.86;100.00
18504;BME280;9381;54.244;10.074;2023-01-23T20:36:10;103556.63;;;4.92;100.00
18504;BME280;9381;54.244;10.074;2023-01-23T20:41:12;103558.97;;;4.97;100.00
18504;BME280;9381;54.244;10.074;2023-01-23T20:46:14;103557.06;;;4.99;100.00
18504;BME280;9381;54.244;10.074;2023-01-23T20:51:15;103554.28;;;4.88;100.00
18504;BME280;9381;54.244;10.074;2023-01-23T20:56:18;103561.59;;;4.86;100.00
18504;BME280;9381;54.244;10.074;2023-01-23T21:01:22;103564.47;;;4.95;100.00
18504;BME280;9381;54.244;10.074;2023-01-23T21:06:22;103556.75;;;4.91;100.00
18504;BME280;9381;54.244;10.074;2023-01-23T21:11:23;103558.97;;;4.97;100.00
18504;BME280;9381;54.244;10.074;2023-01-23T21:16:24;103553.16;;;5.03;100.00
18504;BME280;9381;54.244;10.074;2023-01-23T21:21:25;103562.19;;;5.02;100.00
18504;BME280;9381;54.244;10.074;2023-01-23T21:26:26;103570.81;;;4.94;100.00
18504;BME280;9381;54.244;10.074;2023-01-23T21:31:30;103574.88;;;5.00;100.00
18504;BME280;9381;54.244;10.074;2023-01-23T21:36:34;103584.56;;;4.90;100.00
18504;BME280;9381;54.244;10.074;2023-01-23T21:41:34;103577.25;;;4.92;100.00
18504;BME280;9381;54.244;10.074;2023-01-23T21:46:35;103586.03;;;4.94;100.00
18504;BME280;9381;54.244;10.074;2023-01-23T21:51:35;103587.75;;;4.82;100.00
18504;BME280;9381;54.244;10.074;2023-01-23T21:56:36;103592.59;;;4.90;100.00
18504;BME280;9381;54.244;10.074;2023-01-23T22:01:36;103579.19;;;4.90;100.00
18504;BME280;9381;54.244;10.074;2023-01-23T22:06:44;103578.94;;;4.93;100.00
18504;BME280;9381;54.244;10.074;2023-01-23T22:11:46;103575.63;;;4.89;100.00
18504;BME280;9381;54.244;10.074;2023-01-23T22:16:47;103579.19;;;4.90;100.00
18504;BME280;9381;54.244;10.074;2023-01-23T22:21:47;103583.69;;;4.77;100.00
18504;BME280;9381;54.244;10.074;2023-01-23T22:26:48;103584.00;;;4.85;100.00
18504;BME280;9381;54.244;10.074;2023-01-23T22:31:48;103581.34;;;4.85;100.00
18504;BME280;9381;54.244;10.074;2023-01-23T22:36:50;103581.00;;;4.89;100.00
18504;BME280;9381;54.244;10.074;2023-01-23T22:41:50;103578.94;;;4.93;100.00
18504;BME280;9381;54.244;10.074;2023-01-23T22:46:50;103584.75;;;4.87;100.00
18504;BME280;9381;54.244;10.074;2023-01-23T22:51:51;103575.97;;;4.85;100.00
18504;BME280;9381;54.244;10.074;2023-01-23T22:56:51;103574.03;;;4.87;100.00
18504;BME280;9381;54.244;10.074;2023-01-23T23:01:52;103578.16;;;4.80;100.00
18504;BME280;9381;54.244;10.074;2023-01-23T23:06:52;103579.41;;;4.74;100.00
18504;BME280;9381;54.244;10.074;2023-01-23T23:11:52;103575.78;;;4.75;100.00
18504;BME280;9381;54.244;10.074;2023-01-23T23:16:53;103576.63;;;4.76;100.00
18504;BME280;9381;54.244;10.074;2023-01-23T23:21:53;103572.56;;;4.70;100.00
18504;BME280;9381;54.244;10.074;2023-01-23T23:26:54;103558.63;;;4.65;100.00
18504;BME280;9381;54.244;10.074;2023-01-23T23:31:54;103565.09;;;4.63;100.00
18504;BME280;9381;54.244;10.074;2023-01-23T23:36:54;103564.13;;;4.64;100.00
18504;BME280;9381;54.244;10.074;2023-01-23T23:41:55;103562.47;;;4.74;100.00
18504;BME280;9381;54.244;10.074;2023-01-23T23:46:55;103563.97;;;4.65;100.00
18504;BME280;9381;54.244;10.074;2023-01-23T23:51:55;103561.63;;;4.61;100.00
18504;BME280;9381;54.244;10.074;2023-01-23T23:56:55;103562.06;;;4.67;100.00
